createdAt,value
2022-11-18T00:01:56.633Z,3.10
2022-11-18T00:04:26.213Z,3.10
2022-11-18T00:06:55.834Z,3.00
2022-11-18T00:09:25.387Z,2.87
2022-11-18T00:12:12.865Z,2.40
2022-11-18T00:14:42.370Z,2.30
2022-11-18T00:17:11.809Z,2.60
2022-11-18T00:19:42.001Z,2.27
2022-11-18T00:22:14.848Z,2.37
2022-11-18T00:24:44.311Z,1.95
2022-11-18T00:27:13.875Z,2.13
2022-11-18T00:29:43.581Z,2.50
2022-11-18T00:32:13.097Z,2.45
2022-11-18T00:34:43.822Z,2.40
2022-11-18T00:37:13.316Z,2.27
2022-11-18T00:39:42.985Z,2.03
2022-11-18T00:42:30.394Z,2.08
2022-11-18T00:44:59.873Z,2.00
2022-11-18T00:47:29.373Z,1.80
2022-11-18T00:49:59.007Z,2.07
2022-11-18T00:52:28.726Z,2.25
2022-11-18T00:54:58.325Z,3.42
2022-11-18T00:57:27.764Z,3.92
2022-11-18T00:59:57.348Z,3.77
2022-11-18T01:02:26.951Z,2.65
2022-11-18T01:04:56.407Z,2.80
2022-11-18T01:07:26.156Z,3.30
2022-11-18T01:09:57.700Z,2.20
2022-11-18T01:12:48.960Z,1.97
2022-11-18T01:15:16.572Z,2.00
2022-11-18T01:17:46.084Z,1.92
2022-11-18T01:20:17.072Z,2.00
2022-11-18T01:22:46.574Z,1.82
2022-11-18T01:25:16.152Z,1.70
2022-11-18T01:27:45.724Z,1.72
2022-11-18T01:30:17.072Z,1.90
2022-11-18T01:32:46.959Z,1.77
2022-11-18T01:35:16.604Z,2.12
2022-11-18T01:37:46.243Z,2.10
2022-11-18T01:40:16.118Z,1.80
2022-11-18T01:42:45.752Z,2.12
2022-11-18T01:45:33.104Z,1.63
2022-11-18T01:48:14.325Z,1.67
2022-11-18T01:50:49.472Z,1.77
2022-11-18T01:53:22.121Z,1.80
2022-11-18T01:55:55.022Z,1.62
2022-11-18T01:58:30.301Z,1.65
2022-11-18T02:01:00.567Z,2.10
2022-11-18T02:03:30.599Z,1.70
2022-11-18T02:06:02.546Z,1.70
2022-11-18T02:08:33.020Z,1.50
2022-11-18T02:11:02.559Z,1.57
2022-11-18T02:13:33.941Z,2.17
2022-11-18T02:16:18.669Z,1.97
2022-11-18T02:18:51.176Z,2.05
2022-11-18T02:21:32.656Z,1.72
2022-11-18T02:24:14.196Z,1.83
2022-11-18T02:27:02.083Z,1.32
2022-11-18T02:29:49.314Z,1.47
2022-11-18T02:32:27.429Z,1.77
2022-11-18T02:35:09.396Z,1.40
2022-11-18T02:37:50.970Z,1.47
2022-11-18T02:40:44.732Z,1.55
2022-11-18T02:43:29.403Z,1.77
2022-11-18T02:46:01.896Z,1.72
2022-11-18T02:48:34.803Z,1.70
2022-11-18T02:51:07.233Z,1.57
2022-11-18T02:53:39.455Z,1.80
2022-11-18T02:56:11.438Z,1.70
2022-11-18T02:58:41.082Z,1.83
2022-11-18T03:01:16.240Z,1.45
2022-11-18T03:03:46.360Z,1.80
2022-11-18T03:06:43.377Z,1.65
2022-11-18T03:09:27.659Z,1.60
2022-11-18T03:12:19.601Z,1.60
2022-11-18T03:15:14.124Z,1.57
2022-11-18T03:17:58.199Z,1.57
2022-11-18T03:20:30.719Z,1.75
2022-11-18T03:25:55.488Z,1.67
2022-11-18T03:28:46.138Z,1.12
2022-11-18T03:31:27.863Z,1.77
2022-11-18T03:34:03.038Z,1.30
2022-11-18T03:36:35.597Z,1.25
2022-11-18T03:41:38.600Z,1.35
2022-11-18T03:44:11.165Z,1.72
2022-11-18T03:46:43.712Z,1.52
2022-11-18T03:49:16.624Z,1.90
2022-11-18T03:51:49.536Z,1.60
2022-11-18T03:54:24.707Z,1.60
2022-11-18T03:57:03.397Z,1.40
2022-11-18T03:59:41.587Z,1.80
2022-11-18T04:02:14.240Z,1.60
2022-11-18T04:04:46.836Z,1.60
2022-11-18T04:07:34.283Z,1.62
2022-11-18T04:10:07.298Z,1.90
2022-11-18T04:12:39.832Z,1.37
2022-11-18T04:15:10.206Z,1.50
2022-11-18T04:17:43.444Z,1.62
2022-11-18T04:20:19.160Z,1.67
2022-11-18T04:22:49.255Z,1.55
2022-11-18T04:25:18.741Z,1.65
2022-11-18T04:27:48.247Z,1.60
2022-11-18T04:30:18.238Z,1.83
2022-11-18T04:32:47.904Z,1.55
2022-11-18T04:35:17.463Z,1.45
2022-11-18T04:37:47.073Z,1.57
2022-11-18T04:40:16.822Z,1.52
2022-11-18T04:42:46.492Z,1.50
2022-11-18T04:45:16.613Z,1.32
2022-11-18T04:47:46.117Z,1.40
2022-11-18T04:50:15.680Z,1.22
2022-11-18T04:52:45.355Z,1.85
2022-11-18T04:55:14.928Z,1.30
2022-11-18T04:57:44.592Z,1.22
2022-11-18T05:00:14.390Z,1.45
2022-11-18T05:02:44.479Z,1.60
2022-11-18T05:05:14.122Z,1.40
2022-11-18T05:07:43.709Z,1.30
2022-11-18T05:10:13.870Z,1.32
2022-11-18T05:12:49.593Z,1.00
2022-11-18T05:15:21.575Z,1.27
2022-11-18T05:17:51.730Z,1.50
2022-11-18T05:20:21.611Z,1.57
2022-11-18T05:22:51.469Z,1.30
2022-11-18T05:25:21.130Z,1.10
2022-11-18T05:27:50.589Z,1.70
2022-11-18T05:30:20.184Z,1.30
2022-11-18T05:32:49.639Z,1.30
2022-11-18T05:35:19.232Z,1.30
2022-11-18T05:37:48.730Z,1.47
2022-11-18T05:40:18.877Z,1.40
2022-11-18T05:43:06.127Z,1.45
2022-11-18T05:45:35.560Z,1.30
2022-11-18T05:48:06.940Z,1.30
2022-11-18T05:50:39.503Z,1.12
2022-11-18T05:53:09.089Z,1.20
2022-11-18T05:55:47.257Z,1.35
2022-11-18T05:58:16.721Z,1.20
2022-11-18T06:00:48.701Z,1.55
2022-11-18T06:03:23.898Z,1.37
2022-11-18T06:05:57.917Z,1.40
2022-11-18T06:08:30.469Z,1.20
2022-11-18T06:11:00.546Z,1.40
2022-11-18T06:13:33.203Z,1.10
2022-11-18T06:16:03.702Z,1.20
2022-11-18T06:18:36.074Z,1.47
2022-11-18T06:21:07.428Z,1.52
2022-11-18T06:23:38.636Z,1.60
2022-11-18T06:26:10.101Z,2.07
2022-11-18T06:28:41.162Z,2.10
2022-11-18T06:31:10.699Z,2.75
2022-11-18T06:33:40.276Z,2.80
2022-11-18T06:36:11.373Z,1.63
2022-11-18T06:38:40.943Z,1.33
2022-11-18T06:41:10.833Z,1.52
2022-11-18T06:43:42.064Z,1.47
2022-11-18T06:46:35.370Z,2.00
2022-11-18T06:49:05.185Z,2.08
2022-11-18T06:51:34.787Z,1.63
2022-11-18T06:54:10.241Z,1.70
2022-11-18T06:56:36.830Z,1.70
2022-11-18T06:59:06.691Z,1.95
2022-11-18T07:01:38.735Z,1.60
2022-11-18T07:04:08.372Z,1.77
2022-11-18T07:06:38.088Z,2.85
2022-11-18T07:09:08.559Z,2.55
2022-11-18T07:11:40.220Z,2.30
2022-11-18T07:14:11.091Z,2.20
2022-11-18T07:16:40.821Z,1.80
2022-11-18T07:19:12.380Z,1.70
2022-11-18T07:21:43.369Z,1.72
2022-11-18T07:24:15.634Z,2.43
2022-11-18T07:26:45.237Z,2.10
2022-11-18T07:29:14.750Z,1.65
2022-11-18T07:31:44.332Z,1.97
2022-11-18T07:34:14.706Z,2.80
2022-11-18T07:36:44.306Z,2.80
2022-11-18T07:39:14.017Z,2.80
2022-11-18T07:41:43.543Z,2.60
2022-11-18T07:44:13.780Z,2.47
2022-11-18T07:46:43.381Z,2.50
2022-11-18T07:49:12.963Z,3.02
2022-11-18T07:51:43.502Z,3.30
2022-11-18T07:54:17.388Z,2.87
2022-11-18T07:56:46.967Z,2.57
2022-11-18T07:59:16.872Z,3.03
2022-11-18T08:01:46.779Z,3.08
2022-11-18T08:04:17.958Z,3.08
2022-11-18T08:06:47.554Z,3.70
2022-11-18T08:09:17.377Z,5.27
2022-11-18T08:11:47.524Z,8.08
2022-11-18T08:14:16.986Z,10.97
2022-11-18T08:16:46.505Z,13.20
2022-11-18T08:19:16.503Z,11.55
2022-11-18T08:21:46.301Z,11.33
2022-11-18T08:24:15.838Z,8.98
2022-11-18T08:26:45.538Z,8.00
2022-11-18T08:29:17.859Z,6.78
2022-11-18T08:31:46.192Z,6.25
2022-11-18T08:34:16.666Z,4.70
2022-11-18T08:36:46.512Z,3.70
2022-11-18T08:39:16.709Z,2.60
2022-11-18T08:41:47.531Z,2.50
2022-11-18T08:44:18.014Z,2.23
2022-11-18T08:46:47.697Z,2.00
2022-11-18T08:49:17.627Z,1.82
2022-11-18T08:51:47.270Z,2.12
2022-11-18T08:54:16.769Z,1.80
2022-11-18T08:56:46.748Z,1.85
2022-11-18T08:59:17.141Z,1.80
2022-11-18T09:01:47.219Z,2.10
2022-11-18T09:04:16.849Z,1.70
2022-11-18T09:06:46.359Z,1.90
2022-11-18T09:09:16.517Z,1.53
2022-11-18T09:11:46.192Z,2.00
2022-11-18T09:16:46.977Z,1.50
2022-11-18T09:19:46.877Z,2.15
2022-11-18T09:21:50.052Z,1.53
2022-11-18T09:24:20.113Z,1.70
2022-11-18T09:26:50.369Z,1.40
2022-11-18T09:29:21.609Z,1.30
2022-11-18T09:31:51.193Z,1.17
2022-11-18T09:34:20.827Z,1.10
2022-11-18T09:36:50.619Z,1.80
2022-11-18T09:39:20.478Z,1.42
2022-11-18T09:41:56.495Z,1.57
2022-11-18T09:44:51.819Z,1.40
2022-11-18T09:47:32.977Z,1.33
2022-11-18T09:50:33.974Z,1.60
2022-11-18T09:52:42.233Z,1.45
2022-11-18T09:55:19.772Z,1.25
2022-11-18T09:57:55.119Z,1.30
2022-11-18T10:00:31.257Z,1.20
2022-11-18T10:03:06.871Z,1.25
2022-11-18T10:06:07.650Z,1.20
2022-11-18T10:09:06.038Z,1.40
2022-11-18T10:12:01.979Z,1.42
2022-11-18T10:14:49.596Z,1.50
2022-11-18T10:17:24.933Z,1.37
2022-11-18T10:20:05.985Z,1.30
2022-11-18T10:22:44.526Z,1.65
2022-11-18T10:25:17.292Z,1.30
2022-11-18T10:27:49.876Z,1.77
2022-11-18T10:30:24.758Z,1.32
2022-11-18T10:33:03.317Z,1.50
2022-11-18T10:35:38.208Z,1.60
2022-11-18T10:38:21.683Z,1.50
2022-11-18T10:40:59.918Z,1.55
2022-11-18T10:43:57.950Z,1.60
2022-11-18T10:46:29.915Z,1.77
2022-11-18T10:49:16.798Z,1.83
2022-11-18T10:52:12.018Z,1.73
2022-11-18T10:54:43.409Z,2.53
2022-11-18T10:57:22.078Z,1.75
2022-11-18T10:59:54.603Z,1.70
2022-11-18T11:02:42.761Z,1.72
2022-11-18T11:05:23.970Z,1.40
2022-11-18T11:08:35.110Z,1.70
2022-11-18T11:10:39.820Z,1.80
2022-11-18T11:13:15.331Z,1.40
2022-11-18T11:15:47.938Z,1.75
2022-11-18T11:18:45.080Z,1.50
2022-11-18T11:21:20.080Z,1.57
2022-11-18T11:23:50.074Z,1.40
2022-11-18T11:29:21.977Z,1.70
2022-11-18T11:32:09.353Z,1.60
2022-11-18T11:34:50.759Z,1.20
2022-11-18T11:37:35.353Z,1.40
2022-11-18T11:40:07.863Z,1.20
2022-11-18T11:42:52.578Z,1.33
2022-11-18T11:45:37.340Z,1.20
2022-11-18T11:48:18.801Z,1.30
2022-11-18T11:51:04.321Z,1.25
2022-11-18T11:54:08.318Z,1.32
2022-11-18T11:56:49.805Z,1.30
2022-11-18T11:59:31.522Z,1.52
2022-11-18T12:02:35.909Z,1.07
2022-11-18T12:05:20.470Z,1.47
2022-11-18T12:07:58.741Z,1.30
2022-11-18T12:10:31.946Z,1.45
2022-11-18T12:13:23.921Z,1.30
2022-11-18T12:16:16.333Z,1.33
2022-11-18T12:18:54.978Z,3.83
2022-11-18T12:21:47.469Z,1.52
2022-11-18T12:24:25.743Z,1.35
2022-11-18T12:26:57.423Z,1.40
2022-11-18T12:29:30.180Z,1.30
2022-11-18T12:32:02.658Z,1.20
2022-11-18T12:34:40.947Z,1.42
2022-11-18T12:37:25.613Z,1.60
2022-11-18T12:40:00.804Z,2.77
2022-11-18T12:43:03.626Z,1.33
2022-11-18T12:45:46.122Z,1.57
2022-11-18T12:48:34.163Z,1.52
2022-11-18T12:51:21.463Z,1.40
2022-11-18T12:53:52.326Z,1.37
2022-11-18T12:56:24.168Z,1.55
2022-11-18T12:58:57.660Z,1.70
2022-11-18T13:01:30.921Z,1.67
2022-11-18T13:04:12.237Z,1.77
2022-11-18T13:06:42.500Z,1.10
2022-11-18T13:09:18.250Z,1.30
2022-11-18T13:11:51.122Z,1.40
2022-11-18T13:14:48.248Z,1.57
2022-11-18T13:17:58.694Z,1.03
2022-11-18T13:20:35.811Z,1.27
2022-11-18T13:23:32.445Z,1.10
2022-11-18T13:26:08.109Z,1.40
2022-11-18T13:28:46.648Z,1.40
2022-11-18T13:31:37.351Z,1.93
2022-11-18T13:34:15.671Z,2.20
2022-11-18T13:36:47.474Z,1.50
2022-11-18T13:39:25.125Z,1.50
2022-11-18T13:42:06.845Z,1.50
2022-11-18T13:44:39.113Z,2.00
2022-11-18T13:47:29.684Z,1.73
2022-11-18T13:50:30.858Z,1.30
2022-11-18T13:53:12.646Z,1.52
2022-11-18T13:55:50.928Z,1.45
2022-11-18T13:58:29.368Z,1.60
2022-11-18T14:01:01.713Z,1.50
2022-11-18T14:03:55.178Z,2.90
2022-11-18T14:06:36.679Z,2.10
2022-11-18T14:09:26.091Z,1.57
2022-11-18T14:12:14.998Z,1.67
2022-11-18T14:14:45.633Z,1.57
2022-11-18T14:17:20.902Z,1.90
2022-11-18T14:19:53.164Z,1.60
2022-11-18T14:22:27.951Z,2.37
2022-11-18T14:25:06.518Z,2.00
2022-11-18T14:27:48.716Z,1.70
2022-11-18T14:30:42.609Z,1.80
2022-11-18T14:33:15.962Z,2.08
2022-11-18T14:36:03.868Z,2.27
2022-11-18T14:39:11.443Z,1.63
2022-11-18T14:41:23.467Z,1.95
2022-11-18T14:43:52.909Z,1.92
2022-11-18T14:46:22.353Z,1.83
2022-11-18T14:48:51.970Z,1.80
2022-11-18T14:51:21.663Z,1.73
2022-11-18T14:53:51.137Z,1.75
2022-11-18T14:56:23.753Z,1.40
2022-11-18T14:58:53.261Z,1.27
2022-11-18T15:01:29.296Z,1.50
2022-11-18T15:03:56.882Z,2.27
2022-11-18T15:06:27.085Z,5.60
2022-11-18T15:08:56.680Z,2.20
2022-11-18T15:11:26.184Z,3.40
2022-11-18T15:13:55.788Z,8.10
2022-11-18T15:16:28.233Z,7.90
2022-11-18T15:19:03.336Z,7.78
2022-11-18T15:21:34.282Z,24.10
2022-11-18T15:24:03.876Z,8.63
2022-11-18T15:26:39.533Z,6.97
2022-11-18T15:29:14.808Z,9.58
2022-11-18T15:31:44.474Z,8.75
2022-11-18T15:34:14.451Z,10.90
2022-11-18T15:36:44.411Z,9.53
2022-11-18T15:39:14.902Z,11.95
2022-11-18T15:41:44.793Z,7.58
2022-11-18T15:44:14.314Z,10.13
2022-11-18T15:46:45.579Z,10.90
2022-11-18T15:49:17.935Z,10.90
2022-11-18T15:51:47.674Z,2.70
2022-11-18T15:54:17.540Z,2.67
2022-11-18T15:56:47.637Z,1.90
2022-11-18T15:59:18.104Z,1.52
2022-11-18T16:01:50.156Z,2.98
2022-11-18T16:04:20.244Z,4.57
2022-11-18T16:06:50.704Z,3.12
2022-11-18T16:09:20.582Z,2.10
2022-11-18T16:12:08.667Z,2.10
2022-11-18T16:14:40.042Z,2.00
2022-11-18T16:17:09.683Z,1.70
2022-11-18T16:19:40.712Z,2.77
2022-11-18T16:22:10.479Z,2.55
2022-11-18T16:24:42.951Z,2.15
2022-11-18T16:27:11.192Z,3.12
2022-11-18T16:29:40.634Z,3.80
2022-11-18T16:32:13.254Z,6.25
2022-11-18T16:34:42.762Z,4.23
2022-11-18T16:37:12.321Z,8.98
2022-11-18T16:39:41.817Z,27.87
2022-11-18T16:42:12.936Z,10.82
2022-11-18T16:44:43.925Z,16.60
2022-11-18T16:47:15.153Z,11.75
2022-11-18T16:49:45.468Z,8.85
2022-11-18T16:52:15.038Z,5.75
2022-11-18T16:54:45.925Z,4.17
2022-11-18T16:57:16.573Z,3.40
2022-11-18T16:59:46.054Z,6.25
2022-11-18T17:02:16.411Z,3.00
2022-11-18T17:04:46.128Z,3.42
2022-11-18T17:07:15.850Z,3.20
2022-11-18T17:09:45.407Z,3.22
2022-11-18T17:12:14.937Z,3.75
2022-11-18T17:14:44.351Z,4.70
2022-11-18T17:17:13.821Z,5.87
2022-11-18T17:19:43.230Z,5.10
2022-11-18T17:22:12.891Z,3.80
2022-11-18T17:24:42.396Z,4.10
2022-11-18T17:27:12.327Z,18.65
2022-11-18T17:29:41.839Z,22.13
2022-11-18T17:32:11.999Z,31.25
2022-11-18T17:37:07.103Z,2.92
2022-11-18T17:39:35.804Z,2.00
2022-11-18T17:42:14.630Z,2.80
2022-11-18T17:44:44.734Z,2.50
2022-11-18T17:47:14.306Z,3.90
2022-11-18T17:49:43.915Z,4.67
2022-11-18T17:52:13.457Z,4.00
2022-11-18T17:54:43.046Z,3.47
2022-11-18T17:57:13.129Z,5.00
2022-11-18T17:59:42.704Z,2.65
2022-11-18T18:02:14.131Z,2.85
2022-11-18T18:04:43.755Z,2.80
2022-11-18T18:07:13.282Z,2.87
2022-11-18T18:09:43.027Z,2.77
2022-11-18T18:12:30.392Z,2.60
2022-11-18T18:14:59.859Z,2.77
2022-11-18T18:17:29.278Z,2.70
2022-11-18T18:19:59.258Z,2.80
2022-11-18T18:22:28.698Z,2.45
2022-11-18T18:24:58.203Z,2.70
2022-11-18T18:27:27.623Z,2.37
2022-11-18T18:29:57.205Z,2.70
2022-11-18T18:32:26.816Z,3.77
2022-11-18T18:34:56.338Z,7.40
2022-11-18T18:37:25.916Z,6.60
2022-11-18T18:39:55.597Z,5.00
2022-11-18T18:42:25.009Z,6.37
2022-11-18T18:45:12.586Z,7.20
2022-11-18T18:47:42.779Z,12.33
2022-11-18T18:50:12.829Z,18.65
2022-11-18T18:52:42.314Z,22.20
2022-11-18T18:55:12.134Z,55.57
2022-11-18T18:57:41.554Z,17.50
2022-11-18T19:00:12.487Z,24.32
2022-11-18T19:02:42.141Z,15.08
2022-11-18T19:05:11.658Z,12.37
2022-11-18T19:07:43.786Z,5.12
2022-11-18T19:10:13.352Z,5.55
2022-11-18T19:12:46.940Z,11.83
2022-11-18T19:15:16.798Z,5.47
2022-11-18T19:17:47.845Z,3.87
2022-11-18T19:20:36.867Z,4.67
2022-11-18T19:23:10.449Z,4.72
2022-11-18T19:25:39.779Z,3.27
2022-11-18T19:28:11.551Z,3.17
2022-11-18T19:30:41.244Z,6.45
2022-11-18T19:33:11.820Z,4.67
2022-11-18T19:35:41.509Z,4.37
2022-11-18T19:38:11.005Z,7.45
2022-11-18T19:40:40.527Z,6.47
2022-11-18T19:43:10.045Z,6.60
2022-11-18T19:45:39.558Z,11.08
2022-11-18T19:48:09.078Z,8.15
2022-11-18T19:50:38.822Z,4.47
2022-11-18T19:53:09.891Z,5.67
2022-11-18T19:55:39.433Z,5.90
2022-11-18T19:58:08.867Z,8.23
2022-11-18T20:00:38.531Z,6.35
2022-11-18T20:03:08.191Z,4.37
2022-11-18T20:05:52.878Z,4.77
2022-11-18T20:08:26.116Z,4.35
2022-11-18T20:10:56.240Z,3.10
2022-11-18T20:13:25.692Z,3.90
2022-11-18T20:16:11.040Z,6.17
2022-11-18T20:18:40.778Z,4.62
2022-11-18T20:21:18.116Z,3.20
2022-11-18T20:23:50.079Z,3.37
2022-11-18T20:26:21.861Z,3.37
2022-11-18T20:28:57.210Z,2.92
2022-11-18T20:31:24.105Z,3.30
2022-11-18T20:33:55.805Z,2.80
2022-11-18T20:36:28.197Z,2.60
2022-11-18T20:38:59.931Z,2.77
2022-11-18T20:41:31.180Z,3.60
2022-11-18T20:44:01.802Z,5.53
2022-11-18T20:46:31.370Z,3.60
2022-11-18T20:49:02.015Z,4.12
2022-11-18T20:51:32.270Z,2.00
2022-11-18T20:54:03.004Z,2.12
2022-11-18T20:56:32.494Z,4.83
2022-11-18T20:59:03.084Z,5.35
2022-11-18T21:01:33.997Z,3.75
2022-11-18T21:04:04.580Z,3.03
2022-11-18T21:06:34.829Z,3.93
2022-11-18T21:09:06.884Z,5.37
2022-11-18T21:11:38.056Z,4.10
2022-11-18T21:14:25.402Z,3.10
2022-11-18T21:16:55.463Z,2.80
2022-11-18T21:19:26.724Z,2.00
2022-11-18T21:21:57.557Z,2.40
2022-11-18T21:24:32.255Z,2.62
2022-11-18T21:27:03.726Z,2.00
2022-11-18T21:29:34.976Z,1.80
2022-11-18T21:32:04.474Z,1.90
2022-11-18T21:34:33.979Z,2.50
2022-11-18T21:37:05.405Z,2.70
2022-11-18T21:39:35.070Z,1.62
2022-11-18T21:42:05.329Z,2.50
2022-11-18T21:44:34.878Z,3.08
2022-11-18T21:47:04.400Z,2.20
2022-11-18T21:49:34.354Z,2.00
2022-11-18T21:52:03.925Z,2.27
2022-11-18T21:54:35.372Z,1.92
2022-11-18T21:57:04.960Z,1.85
2022-11-18T21:59:34.552Z,1.98
2022-11-18T22:02:04.391Z,2.60
2022-11-18T22:04:51.613Z,2.22
2022-11-18T22:07:22.201Z,2.40
2022-11-18T22:09:54.736Z,2.60
2022-11-18T22:12:24.309Z,12.53
2022-11-18T22:14:53.801Z,9.95
2022-11-18T22:17:23.383Z,4.67
2022-11-18T22:19:52.931Z,3.30
2022-11-18T22:22:22.437Z,14.83
2022-11-18T22:24:51.953Z,16.67
2022-11-18T22:27:21.500Z,20.90
2022-11-18T22:29:51.001Z,6.05
2022-11-18T22:32:21.192Z,7.44
2022-11-18T22:34:51.902Z,5.95
2022-11-18T22:37:21.684Z,6.47
2022-11-18T22:39:51.182Z,3.60
2022-11-18T22:42:38.295Z,7.28
2022-11-18T22:45:09.187Z,7.77
2022-11-18T22:47:38.698Z,5.03
2022-11-18T22:50:08.378Z,3.07
2022-11-18T22:52:37.910Z,3.73
2022-11-18T22:55:07.569Z,2.10
2022-11-18T22:57:37.136Z,3.57
2022-11-18T23:00:09.808Z,3.52
2022-11-18T23:02:39.397Z,4.12
2022-11-18T23:05:10.656Z,3.87
2022-11-18T23:07:40.318Z,3.40
2022-11-18T23:10:10.798Z,3.92
2022-11-18T23:12:47.669Z,3.63
2022-11-18T23:15:15.918Z,3.22
2022-11-18T23:17:45.475Z,2.98
2022-11-18T23:20:15.112Z,2.27
2022-11-18T23:22:45.060Z,1.83
2022-11-18T23:25:14.619Z,2.00
2022-11-18T23:27:44.159Z,1.80
2022-11-18T23:30:14.446Z,1.37
2022-11-18T23:32:43.889Z,1.60
2022-11-18T23:35:13.534Z,1.63
2022-11-18T23:37:43.074Z,1.80
2022-11-18T23:40:13.937Z,1.20
2022-11-18T23:42:43.448Z,1.40
2022-11-18T23:45:12.922Z,1.42
2022-11-18T23:47:42.442Z,1.52
2022-11-18T23:50:11.990Z,1.35
2022-11-18T23:52:43.282Z,1.42
2022-11-18T23:55:12.867Z,1.20
2022-11-18T23:57:42.362Z,1.10
